Flight Track Log - Related Links

Times and Time Zones

All times are in EDT time to prevent confusion due to time zone crossing. See the C-GIWO flight status page for this flight to view local times or setup timezone preferences in your user account.

Time Position Orientation Groundspeed Altitude Reporting Facility
EDT Latitude Longitude Course Direction KTS MPH feet Rate Location/Type
Wed 21:55:23 53.2833 -113.6333 329° Northwest 170 196 3,200  Level Edmonton Center
Wed 21:56:23 53.3167 -113.6667 329° Northwest 220 253 6,500 3,400 Climbing Edmonton Center
Wed 21:57:23 53.3833 -113.7500 323° Northwest 250 288 10,000 3,450 Climbing Edmonton Center
Wed 21:58:23 53.4500 -113.7833 343° North 260 299 13,400 3,050 Climbing Edmonton Center
Wed 21:59:23 53.5167 -113.8667 323° Northwest 280 322 16,100 2,700 Climbing Edmonton Center
Wed 22:00:23 53.6000 -113.9000 347° North 300 345 18,800 2,650 Climbing Edmonton Center
Wed 22:01:23 53.6667 -113.9833 323° Northwest 310 357 21,400 2,200 Climbing Edmonton Center
Wed 22:02:23 53.7500 -114.0333 340° North 330 380 23,200 1,850 Climbing Edmonton Center
Wed 22:03:23 53.8500 -114.1000 339° North 350 403 25,100 1,950 Climbing Edmonton Center
Wed 22:04:23 53.9500 -114.1833 334° Northwest 360 414 27,100 1,700 Climbing Edmonton Center
Wed 22:05:23 54.0500 -114.2667 334° Northwest 380 437 28,500 1,300 Climbing Edmonton Center
Wed 22:06:23 54.1333 -114.3500 330° Northwest 400 460 29,700 1,300 Climbing Edmonton Center
Wed 22:07:23 54.2500 -114.4333 337° Northwest 410 472 31,100 1,400 Climbing Edmonton Center
Wed 22:08:23 54.3500 -114.5167 334° Northwest 420 483 32,500 1,400 Climbing Edmonton Center
Wed 22:09:23 54.4667 -114.6000 337° Northwest 420 483 33,900 750 Climbing Edmonton Center
Wed 22:10:23 54.5667 -114.6833 334° Northwest 430 495 34,000 50 Climbing Edmonton Center
Wed 22:11:23 54.6833 -114.7667 338° Northwest 450 518 34,000  Level Edmonton Center
Wed 22:12:23 54.8000 -114.8667 334° Northwest 450 518 34,000  Level Edmonton Center
Wed 22:13:23 54.9167 -114.9833 330° Northwest 450 518 34,000  Level Edmonton Center
Wed 22:14:23 55.0333 -115.0667 338° Northwest 450 518 34,000  Level Edmonton Center
Wed 22:15:23 55.1500 -115.1667 334° Northwest 440 506 34,000  Level Edmonton Center
Wed 22:16:23 55.2667 -115.2500 338° Northwest 440 506 34,000  Level Edmonton Center
Wed 22:17:23 55.3500 -115.3667 321° Northwest 440 506 34,000  Level Edmonton Center
Wed 22:18:23 55.4833 -115.4667 337° Northwest 440 506 34,000  Level Edmonton Center
Wed 22:19:23 55.5833 -115.5500 335° Northwest 440 506 34,000  Level Edmonton Center
Wed 22:20:23 55.7000 -115.6500 334° Northwest 450 518 34,000  Level Edmonton Center
Wed 22:21:23 55.8167 -115.7333 338° Northwest 450 518 34,000  Level Edmonton Center
Wed 22:22:23 55.9333 -115.8333 334° Northwest 450 518 34,000  Level Edmonton Center
Wed 22:23:23 56.0333 -115.9500 327° Northwest 450 518 34,000  Level Edmonton Center
Wed 22:24:23 56.1500 -116.0500 334° Northwest 450 518 34,000  Level Edmonton Center
Wed 22:25:23 56.2667 -116.1500 335° Northwest 450 518 34,000  Level Edmonton Center
Wed 22:26:23 56.3833 -116.2500 335° Northwest 450 518 34,000  Level Edmonton Center
Wed 22:27:23 56.5000 -116.3333 338° Northwest 440 506 34,000  Level Edmonton Center
Wed 22:28:23 56.6000 -116.4333 331° Northwest 440 506 34,000  Level Edmonton Center
Wed 22:29:23 56.7000 -116.5333 331° Northwest 440 506 34,000  Level Edmonton Center
Wed 22:30:23 56.8333 -116.6667 331° Northwest 440 506 34,000  Level Edmonton Center
Wed 22:31:23 56.9167 -116.7500 331° Northwest 430 495 34,000  Level Edmonton Center
Wed 22:32:23 57.0500 -116.8667 335° Northwest 440 506 34,000  Level Edmonton Center
Wed 22:33:23 57.1333 -116.9500 332° Northwest 430 495 34,000  Level Edmonton Center
Wed 22:34:23 57.2667 -117.0667 335° Northwest 440 506 34,000  Level Edmonton Center
Wed 22:35:23 57.3667 -117.1500 336° Northwest 420 483 34,000  Level Edmonton Center
Wed 22:36:23 57.4667 -117.2500 332° Northwest 430 495 34,000  Level Edmonton Center
Wed 22:37:23 57.5833 -117.3500 335° Northwest 430 495 34,000  Level Edmonton Center
Wed 22:38:23 57.7000 -117.4667 332° Northwest 430 495 34,000  Level Edmonton Center
Wed 22:39:23 57.8000 -117.6000 325° Northwest 420 483 34,000  Level Edmonton Center
Wed 22:40:23 57.9167 -117.7000 336° Northwest 430 495 34,000  Level Edmonton Center
Wed 22:41:23 58.0167 -117.8000 332° Northwest 440 506 34,000  Level Edmonton Center
Wed 22:42:23 58.1167 -117.9000 332° Northwest 430 495 34,000  Level Edmonton Center
Wed 22:43:23 58.2333 -118.0167 332° Northwest 430 495 34,000  Level Edmonton Center
Wed 22:44:23 58.3333 -118.1167 332° Northwest 430 495 34,000  Level Edmonton Center
Wed 22:45:23 58.4500 -118.2333 332° Northwest 440 506 34,000  Level Edmonton Center
Wed 22:46:23 58.5667 -118.3333 336° Northwest 450 518 34,000  Level Edmonton Center
Wed 22:47:23 58.6667 -118.4833 322° Northwest 450 518 34,000  Level Edmonton Center
Wed 22:49:00 58.8290 -118.6468 332° Northwest  Level FlightAware Approximate
Wed 22:54:26 59.4333 -119.2667 332° Northwest 430 495 34,000  Level Edmonton Center
Wed 22:55:26 59.5333 -119.3833 329° Northwest 430 495 34,000  Level Edmonton Center
Wed 22:56:00 59.5295 -119.3726 332° Northwest  Level FlightAware Approximate
Wed 22:56:26 59.6500 -119.5333 327° Northwest 440 506 34,000  Level Edmonton Center
Wed 22:57:00 59.6292 -119.4788 332° Northwest  Level FlightAware Approximate
Wed 22:57:26 59.7500 -119.6500 330° Northwest 440 506 34,000  Level Edmonton Center
Wed 22:58:00 59.7288 -119.5856 332° Northwest  Level FlightAware Approximate
Wed 22:58:26 59.8667 -119.7667 333° Northwest 440 506 34,000  Level Edmonton Center
Wed 22:59:00 59.8284 -119.6930 332° Northwest  Level FlightAware Approximate
Wed 22:59:26 59.9833 -119.8833 333° Northwest 450 518 34,000  Level Edmonton Center
Wed 23:00:26 60.1000 -120.0000 334° Northwest 440 506 34,000  Level Edmonton Center
Wed 23:01:26 60.1833 -120.1167 325° Northwest 440 506 34,000  Level Edmonton Center
Wed 23:02:26 60.3000 -120.2500 330° Northwest 440 506 34,000  Level Edmonton Center
Wed 23:03:26 60.4000 -120.4000 323° Northwest 440 506 34,000  Level Edmonton Center
Wed 23:04:26 60.5000 -120.5167 330° Northwest 440 506 34,000  Level Edmonton Center
Wed 23:05:26 60.6167 -120.6333 334° Northwest 430 495 34,000  Level Edmonton Center
Wed 23:06:26 60.7167 -120.7667 327° Northwest 430 495 34,000  Level Edmonton Center
Wed 23:07:26 60.8167 -120.8833 330° Northwest 430 495 34,000  Level Edmonton Center
Wed 23:08:26 60.9333 -121.0167 331° Northwest 430 495 34,000  Level Edmonton Center
Wed 23:09:26 61.0333 -121.1500 327° Northwest 430 495 34,000  Level Edmonton Center
Wed 23:10:26 61.1333 -121.2667 331° Northwest 420 483 34,000  Level Edmonton Center
Wed 23:11:26 61.2333 -121.3833 331° Northwest 430 495 34,000  Level Edmonton Center
Wed 23:12:26 61.3500 -121.5333 328° Northwest 430 495 34,000  Level Edmonton Center
Wed 23:13:26 61.4500 -121.6500 331° Northwest 430 495 34,000  Level Edmonton Center
Wed 23:14:26 61.5500 -121.7833 328° Northwest 430 495 34,000  Level Edmonton Center
Wed 23:15:26 61.6500 -121.9500 322° Northwest 440 506 34,000  Level Edmonton Center
Wed 23:16:26 61.7500 -122.0833 328° Northwest 440 506 34,000  Level Edmonton Center
Wed 23:17:26 61.8667 -122.2167 332° Northwest 440 506 34,000  Level Edmonton Center
Wed 23:18:26 61.9667 -122.3500 328° Northwest 440 506 34,000  Level Edmonton Center
Wed 23:19:26 62.0667 -122.4833 328° Northwest 450 518 34,000  Level Edmonton Center
Wed 23:20:26 62.1833 -122.6167 332° Northwest 430 495 34,000  Level Edmonton Center
Wed 23:21:26 62.2833 -122.7500 328° Northwest 440 506 34,000  Level Edmonton Center
Wed 23:22:26 62.3833 -122.9000 325° Northwest 440 506 34,000  Level Edmonton Center
Wed 23:24:00 62.5340 -123.1030 328° Northwest  Level FlightAware Approximate
Wed 23:31:00 63.2033 -124.0356 328° Northwest  Level FlightAware Approximate
Wed 23:32:00 63.2985 -124.1724 327° Northwest  Level FlightAware Approximate
Wed 23:33:00 63.3934 -124.3100 327° Northwest  Level FlightAware Approximate
Wed 23:34:00 63.4883 -124.4486 327° Northwest  Level FlightAware Approximate
Wed 23:35:00 63.5830 -124.5881 327° Northwest  Level FlightAware Approximate
Wed 23:36:00 63.6776 -124.7285 327° Northwest  Level FlightAware Approximate
Wed 23:37:00 63.7720 -124.8699 327° Northwest  Level FlightAware Approximate
Wed 23:38:00 63.8663 -125.0122 326° Northwest  Level FlightAware Approximate
Wed 23:39:00 63.9605 -125.1555 326° Northwest  Level FlightAware Approximate
Wed 23:40:00 64.0545 -125.2997 326° Northwest  Level FlightAware Approximate
Wed 23:41:00 64.1484 -125.4449 326° Northwest  Level FlightAware Approximate
Wed 23:42:00 64.2421 -125.5911 326° Northwest  Level FlightAware Approximate
Wed 23:43:00 64.3357 -125.7383 326° Northwest  Level FlightAware Approximate
Wed 23:44:00 64.4291 -125.8865 326° Northwest  Level FlightAware Approximate
Wed 23:45:00 64.5224 -126.0357 325° Northwest  Level FlightAware Approximate
Wed 23:46:00 64.6155 -126.1859 325° Northwest  Level FlightAware Approximate
Wed 23:47:00 64.7085 -126.3372 325° Northwest  Level FlightAware Approximate
Wed 23:48:00 64.8013 -126.4895 325° Northwest  Level FlightAware Approximate
Wed 23:49:00 64.8940 -126.6428 325° Northwest  Level FlightAware Approximate
Wed 23:50:00 64.9865 -126.7972 325° Northwest  Level FlightAware Approximate
Wed 23:51:00 65.0788 -126.9527 325° Northwest  Level FlightAware Approximate
Wed 23:52:00 65.1710 -127.1093 325° Northwest  Level FlightAware Approximate
Wed 23:53:00 65.2630 -127.2670 324° Northwest  Level FlightAware Approximate
Wed 23:54:00 65.3549 -127.4257 324° Northwest  Level FlightAware Approximate
Wed 23:55:00 65.4466 -127.5856 324° Northwest  Level FlightAware Approximate
Wed 23:56:00 65.5381 -127.7466 324° Northwest  Level FlightAware Approximate
Wed 23:57:00 65.6294 -127.9087 324° Northwest  Level FlightAware Approximate
Wed 23:58:00 65.7206 -128.0720 324° Northwest  Level FlightAware Approximate
Wed 23:59:00 65.8116 -128.2364 324° Northwest  Level FlightAware Approximate
Thu 00:00:00 65.9024 -128.4020 323° Northwest  Level FlightAware Approximate
Thu 00:01:00 65.9966 -128.5615 325° Northwest  Level FlightAware Approximate
Thu 00:02:00 66.0907 -128.7222 325° Northwest  Level FlightAware Approximate
Thu 00:03:00 66.1845 -128.8841 325° Northwest  Level FlightAware Approximate
Thu 00:04:00 66.2783 -129.0471 325° Northwest  Level FlightAware Approximate
Thu 00:05:00 66.3718 -129.2114 325° Northwest  Level FlightAware Approximate
Thu 00:06:00 66.4653 -129.3767 325° Northwest  Level FlightAware Approximate
Thu 00:07:00 66.5590 -129.5416 325° Northwest  Level FlightAware Approximate
Thu 00:08:00 66.6525 -129.7077 325° Northwest  Level FlightAware Approximate
Thu 00:09:00 66.7459 -129.8751 325° Northwest  Level FlightAware Approximate
Thu 00:10:00 66.8390 -130.0441 323° Northwest  Level FlightAware Approximate
Thu 00:11:00 66.9305 -130.2191 323° Northwest  Level FlightAware Approximate
Thu 00:12:00 67.0219 -130.3954 323° Northwest  Level FlightAware Approximate
Thu 00:13:00 67.1133 -130.5576 325° Northwest  Level FlightAware Approximate
Thu 00:14:00 67.2067 -130.7281 325° Northwest  Level FlightAware Approximate
Thu 00:15:00 67.2999 -130.8999 325° Northwest  Level FlightAware Approximate
Thu 00:16:00 67.3908 -131.0806 323° Northwest  Level FlightAware Approximate
Thu 00:17:00 67.4815 -131.2626 322° Northwest  Level FlightAware Approximate
Thu 00:18:00 67.5727 -131.4434 323° Northwest  Level FlightAware Approximate
Thu 00:19:00 67.6640 -131.6249 323° Northwest  Level FlightAware Approximate
Thu 00:20:00 67.7550 -131.8078 323° Northwest  Level FlightAware Approximate
Thu 00:21:00 67.8457 -131.9927 321° Northwest  Level FlightAware Approximate
Thu 00:22:00 67.9351 -132.1825 321° Northwest  Level FlightAware Approximate
Thu 00:23:00 68.0249 -132.3716 322° Northwest  Level FlightAware Approximate
Thu 00:24:00 68.1149 -132.5610 322° Northwest  Level FlightAware Approximate
Thu 00:25:00 68.2048 -132.7514 322° Northwest  Level FlightAware Approximate
Thu 00:26:00 68.2977 -132.9287 324° Northwest  Level FlightAware Approximate
Thu 00:27:00 68.3000 -133.2010 270° West  Level FlightAware Approximate
Thu 00:28:00 68.3000 -133.4667 270° West  Level FlightAware Approximate
Thu 00:29:00 68.3042 -133.4828 270° West  Level Estimated
Thu 00:30:00 68.3042 -133.4828 270° West  Level Estimated
Thu 00:31:00 68.3042 -133.4828 270° West  Level Estimated
Thu 00:32:00 68.3042 -133.4828 270° West  Level Estimated
Thu 00:33:00 68.3042 -133.4828 270° West  Level Estimated
Thu 00:34:00 68.3042 -133.4828 270° West  Level Estimated

Login

Don't have an account? Register now (free) for customized features, flight alerts, and more!